createdAt,value
2023-04-29T00:03:39.155Z,25.00
2023-04-29T00:04:40.161Z,25.00
2023-04-29T00:05:39.953Z,25.00
2023-04-29T00:06:40.064Z,25.00
2023-04-29T00:07:39.838Z,25.00
2023-04-29T00:08:39.825Z,25.00
2023-04-29T00:09:39.816Z,0.00
2023-04-29T00:10:39.810Z,0.00
2023-04-29T00:11:39.816Z,0.00
2023-04-29T00:12:39.820Z,0.00
2023-04-29T00:13:40.566Z,0.00
2023-04-29T00:14:39.811Z,0.00
2023-04-29T00:15:39.801Z,0.00
2023-04-29T00:16:39.830Z,11.84
2023-04-29T00:17:39.803Z,25.00
2023-04-29T00:18:40.605Z,25.19
2023-04-29T00:19:39.797Z,25.00
2023-04-29T00:20:39.755Z,25.72
2023-04-29T00:21:39.750Z,25.00
2023-04-29T00:22:39.766Z,23.57
2023-04-29T00:23:39.755Z,24.37
2023-04-29T00:24:39.757Z,26.65
2023-04-29T00:25:39.699Z,25.00
2023-04-29T00:26:39.700Z,25.00
2023-04-29T00:27:39.699Z,26.08
2023-04-29T00:28:39.696Z,25.80
2023-04-29T00:29:39.678Z,25.00
2023-04-29T00:30:39.707Z,26.53
2023-04-29T00:31:39.731Z,27.26
2023-04-29T00:32:39.682Z,25.81
2023-04-29T00:33:39.648Z,26.90
2023-04-29T00:34:39.666Z,27.35
2023-04-29T00:35:39.637Z,25.70
2023-04-29T00:36:39.625Z,26.96
2023-04-29T00:37:39.621Z,26.52
2023-04-29T00:38:39.613Z,26.23
2023-04-29T00:39:39.608Z,25.00
2023-04-29T00:40:39.621Z,27.08
2023-04-29T00:41:39.610Z,26.39
2023-04-29T00:42:39.598Z,25.00
2023-04-29T00:43:39.614Z,26.26
2023-04-29T00:44:39.617Z,26.28
2023-04-29T00:45:39.621Z,29.19
2023-04-29T00:46:39.779Z,25.00
2023-04-29T00:47:39.631Z,25.65
2023-04-29T00:48:39.626Z,25.00
2023-04-29T00:49:39.627Z,25.98
2023-04-29T00:50:39.651Z,27.64
2023-04-29T00:51:39.631Z,27.63
2023-04-29T00:52:39.655Z,25.78
2023-04-29T00:53:39.651Z,28.23
2023-04-29T00:54:39.666Z,28.84
2023-04-29T00:55:39.662Z,27.59
2023-04-29T00:56:39.682Z,26.09
2023-04-29T00:57:39.690Z,26.79
2023-04-29T00:58:39.705Z,25.00
2023-04-29T00:59:39.703Z,28.97
2023-04-29T01:00:39.697Z,25.00
2023-04-29T01:01:39.728Z,26.31
2023-04-29T01:02:39.753Z,28.27
2023-04-29T01:03:39.910Z,25.00
2023-04-29T01:04:39.739Z,29.84
2023-04-29T01:05:39.720Z,29.19
2023-04-29T01:06:39.756Z,28.63
2023-04-29T01:07:39.741Z,29.22
2023-04-29T01:08:39.741Z,31.16
2023-04-29T01:09:39.734Z,29.75
2023-04-29T01:10:39.732Z,28.33
2023-04-29T01:11:39.737Z,27.15
2023-04-29T01:12:39.743Z,32.29
2023-04-29T01:13:39.740Z,27.29
2023-04-29T01:14:39.752Z,31.15
2023-04-29T01:15:39.797Z,27.78
2023-04-29T01:16:39.964Z,26.93
2023-04-29T01:17:40.692Z,28.43
2023-04-29T01:18:39.733Z,25.96
2023-04-29T01:19:39.741Z,25.00
2023-04-29T01:20:39.732Z,25.95
2023-04-29T01:21:39.728Z,25.00
2023-04-29T01:22:39.750Z,25.11
2023-04-29T01:23:39.719Z,26.25
2023-04-29T01:24:39.731Z,25.30
2023-04-29T01:25:39.726Z,27.10
2023-04-29T01:26:39.735Z,26.70
2023-04-29T01:27:39.726Z,28.39
2023-04-29T01:28:39.719Z,26.43
2023-04-29T01:29:39.717Z,27.53
2023-04-29T01:30:39.728Z,26.28
2023-04-29T01:31:39.730Z,26.86
2023-04-29T01:32:39.797Z,27.80
2023-04-29T01:33:39.727Z,28.94
2023-04-29T01:34:39.727Z,29.39
2023-04-29T01:35:39.719Z,27.49
2023-04-29T01:36:39.721Z,28.02
2023-04-29T01:37:39.717Z,26.96
2023-04-29T01:38:39.742Z,27.52
2023-04-29T01:39:39.717Z,28.00
2023-04-29T01:40:39.714Z,29.42
2023-04-29T01:41:39.703Z,27.09
2023-04-29T01:42:39.707Z,28.42
2023-04-29T01:43:39.709Z,27.27
2023-04-29T01:44:39.707Z,27.66
2023-04-29T01:45:39.719Z,27.48
2023-04-29T01:46:39.735Z,29.15
2023-04-29T01:47:39.731Z,26.77
2023-04-29T01:48:39.687Z,29.76
2023-04-29T01:49:39.689Z,31.91
2023-04-29T01:50:39.684Z,31.03
2023-04-29T01:51:39.677Z,29.77
2023-04-29T01:52:39.676Z,29.05
2023-04-29T01:53:39.690Z,29.80
2023-04-29T01:54:39.707Z,28.05
2023-04-29T01:55:39.680Z,26.73
2023-04-29T01:56:39.686Z,25.00
2023-04-29T01:57:39.675Z,29.86
2023-04-29T01:58:39.680Z,26.08
2023-04-29T01:59:40.598Z,27.89
2023-04-29T02:00:39.722Z,28.35
2023-04-29T02:01:39.703Z,30.05
2023-04-29T02:02:39.904Z,28.38
2023-04-29T02:03:39.756Z,26.52
2023-04-29T02:04:39.735Z,28.44
2023-04-29T02:05:39.679Z,27.86
2023-04-29T02:06:39.685Z,26.08
2023-04-29T02:07:39.676Z,29.45
2023-04-29T02:08:39.690Z,28.65
2023-04-29T02:09:39.691Z,27.04
2023-04-29T02:10:39.714Z,29.60
2023-04-29T02:11:39.681Z,28.21
2023-04-29T02:12:39.680Z,28.67
2023-04-29T02:13:39.709Z,27.93
2023-04-29T02:14:40.612Z,28.64
2023-04-29T02:15:39.677Z,29.10
2023-04-29T02:16:39.722Z,30.85
2023-04-29T02:17:39.737Z,30.10
2023-04-29T02:18:39.672Z,26.96
2023-04-29T02:19:39.666Z,26.27
2023-04-29T02:20:39.673Z,27.68
2023-04-29T02:21:39.695Z,29.47
2023-04-29T02:22:39.668Z,26.77
2023-04-29T02:23:39.665Z,27.84
2023-04-29T02:24:39.660Z,29.82
2023-04-29T02:25:39.662Z,28.62
2023-04-29T02:26:39.687Z,25.24
2023-04-29T02:27:39.674Z,29.00
2023-04-29T02:28:39.664Z,30.22
2023-04-29T02:29:39.677Z,30.31
2023-04-29T02:30:39.674Z,30.53
2023-04-29T02:31:39.708Z,31.06
2023-04-29T02:32:39.699Z,29.94
2023-04-29T02:33:39.671Z,30.58
2023-04-29T02:34:39.663Z,29.58
2023-04-29T02:35:39.679Z,28.52
2023-04-29T02:36:39.660Z,30.40
2023-04-29T02:37:39.680Z,30.95
2023-04-29T02:38:39.665Z,27.85
2023-04-29T02:39:39.671Z,31.23
2023-04-29T02:40:39.696Z,31.98
2023-04-29T02:41:39.700Z,33.65
2023-04-29T02:42:39.727Z,31.00
2023-04-29T02:43:39.694Z,29.86
2023-04-29T02:44:39.700Z,30.66
2023-04-29T02:45:39.833Z,32.69
2023-04-29T02:46:39.699Z,32.48
2023-04-29T02:47:39.825Z,35.14
2023-04-29T02:48:39.679Z,33.87
2023-04-29T02:49:39.683Z,34.50
2023-04-29T02:50:39.700Z,31.59
2023-04-29T02:51:39.682Z,33.91
2023-04-29T02:52:39.688Z,35.40
2023-04-29T02:53:39.681Z,34.24
2023-04-29T02:54:39.689Z,33.65
2023-04-29T02:55:39.681Z,33.07
2023-04-29T02:56:39.679Z,33.12
2023-04-29T02:57:39.700Z,33.66
2023-04-29T02:58:40.658Z,33.86
2023-04-29T02:59:39.673Z,36.16
2023-04-29T03:00:39.673Z,33.27
2023-04-29T03:01:39.841Z,37.24
2023-04-29T03:02:39.794Z,33.80
2023-04-29T03:03:39.805Z,37.11
2023-04-29T03:04:39.658Z,36.59
2023-04-29T03:05:39.665Z,34.89
2023-04-29T03:06:39.661Z,32.22
2023-04-29T03:07:39.656Z,31.76
2023-04-29T03:08:39.651Z,32.42
2023-04-29T03:09:40.643Z,31.23
2023-04-29T03:10:41.268Z,31.29
2023-04-29T03:11:39.636Z,32.58
2023-04-29T03:12:39.689Z,36.70
2023-04-29T03:13:39.634Z,34.79
2023-04-29T03:14:39.645Z,36.06
2023-04-29T03:15:39.623Z,33.57
2023-04-29T03:16:39.640Z,34.89
2023-04-29T03:17:39.665Z,31.72
2023-04-29T03:18:39.596Z,31.23
2023-04-29T03:19:39.587Z,30.92
2023-04-29T03:20:39.572Z,31.66
2023-04-29T03:21:39.585Z,30.40
2023-04-29T03:22:39.557Z,32.66
2023-04-29T03:23:39.572Z,31.97
2023-04-29T03:24:39.571Z,33.67
2023-04-29T03:25:39.553Z,33.87
2023-04-29T03:26:39.533Z,31.18
2023-04-29T03:27:39.544Z,29.77
2023-04-29T03:28:39.516Z,32.22
2023-04-29T03:29:39.513Z,33.78
2023-04-29T03:30:39.521Z,32.44
2023-04-29T03:31:40.223Z,32.85
2023-04-29T03:32:39.509Z,31.55
2023-04-29T03:33:39.487Z,30.32
2023-04-29T03:34:39.481Z,32.18
2023-04-29T03:35:39.471Z,32.92
2023-04-29T03:36:39.510Z,30.02
2023-04-29T03:37:39.472Z,32.30
2023-04-29T03:38:39.453Z,35.45
2023-04-29T03:39:39.450Z,34.21
2023-04-29T03:40:39.429Z,34.33
2023-04-29T03:41:39.425Z,33.59
2023-04-29T03:42:39.424Z,35.49
2023-04-29T03:43:39.416Z,32.53
2023-04-29T03:44:39.405Z,31.66
2023-04-29T03:45:39.392Z,27.78
2023-04-29T03:46:39.439Z,28.77
2023-04-29T03:47:39.405Z,26.15
2023-04-29T03:48:39.379Z,30.41
2023-04-29T03:49:39.374Z,31.10
2023-04-29T03:50:39.368Z,30.28
2023-04-29T03:51:39.348Z,32.44
2023-04-29T03:52:39.354Z,31.13
2023-04-29T03:53:39.341Z,28.57
2023-04-29T03:54:39.337Z,33.58
2023-04-29T03:55:39.331Z,29.61
2023-04-29T03:56:39.335Z,30.32
2023-04-29T03:57:41.009Z,30.74
2023-04-29T03:58:39.314Z,30.94
2023-04-29T03:59:39.303Z,31.81
2023-04-29T04:00:39.298Z,31.76
2023-04-29T04:01:39.310Z,32.37
2023-04-29T04:02:39.533Z,32.16
2023-04-29T04:03:39.383Z,35.31
2023-04-29T04:04:39.386Z,37.51
2023-04-29T04:05:39.268Z,37.23
2023-04-29T04:06:39.247Z,36.57
2023-04-29T04:07:39.248Z,37.24
2023-04-29T04:08:39.239Z,38.27
2023-04-29T04:09:39.228Z,35.59
2023-04-29T04:10:39.230Z,35.32
2023-04-29T04:11:39.216Z,33.90
2023-04-29T04:12:39.220Z,35.05
2023-04-29T04:13:39.208Z,36.34
2023-04-29T04:14:39.204Z,36.47
2023-04-29T04:15:42.138Z,34.66
2023-04-29T04:16:39.276Z,34.98
2023-04-29T04:17:39.198Z,35.44
2023-04-29T04:18:39.190Z,35.18
2023-04-29T04:19:39.150Z,35.86
2023-04-29T04:20:39.162Z,35.34
2023-04-29T04:21:39.142Z,38.15
2023-04-29T04:22:39.140Z,40.48
2023-04-29T04:23:39.149Z,36.52
2023-04-29T04:24:39.124Z,36.10
2023-04-29T04:25:39.112Z,36.83
2023-04-29T04:26:39.115Z,32.09
2023-04-29T04:27:39.104Z,36.17
2023-04-29T04:28:39.095Z,32.90
2023-04-29T04:29:39.089Z,37.04
2023-04-29T04:30:39.086Z,34.98
2023-04-29T04:31:39.114Z,37.24
2023-04-29T04:32:39.132Z,37.62
2023-04-29T04:33:39.074Z,32.63
2023-04-29T04:34:39.197Z,35.39
2023-04-29T04:35:39.050Z,33.23
2023-04-29T04:36:39.045Z,31.59
2023-04-29T04:37:39.042Z,33.45
2023-04-29T04:38:39.030Z,35.17
2023-04-29T04:39:39.026Z,31.86
2023-04-29T04:40:39.100Z,32.66
2023-04-29T04:41:39.020Z,34.61
2023-04-29T04:42:38.999Z,33.59
2023-04-29T04:43:38.987Z,33.32
2023-04-29T04:44:38.988Z,33.16
2023-04-29T04:45:39.674Z,33.66
2023-04-29T04:46:39.000Z,29.95
2023-04-29T04:47:39.003Z,29.85
2023-04-29T04:48:38.963Z,30.69
2023-04-29T04:49:38.949Z,31.76
2023-04-29T04:50:38.965Z,32.31
2023-04-29T04:51:38.937Z,32.60
2023-04-29T04:52:38.921Z,31.55
2023-04-29T04:53:38.924Z,34.40
2023-04-29T04:54:38.918Z,36.18
2023-04-29T04:55:38.918Z,34.67
2023-04-29T04:56:38.899Z,37.89
2023-04-29T04:57:38.894Z,37.47
2023-04-29T04:58:38.880Z,39.27
2023-04-29T04:59:38.878Z,38.88
2023-04-29T05:00:38.866Z,37.76
2023-04-29T05:01:38.910Z,36.68
2023-04-29T05:02:38.989Z,35.95
2023-04-29T05:03:39.084Z,35.31
2023-04-29T05:04:38.835Z,36.11
2023-04-29T05:05:38.824Z,32.55
2023-04-29T05:06:38.847Z,33.09
2023-04-29T05:07:38.824Z,35.37
2023-04-29T05:08:38.816Z,33.60
2023-04-29T05:09:38.819Z,34.59
2023-04-29T05:10:38.807Z,37.35
2023-04-29T05:11:38.790Z,39.29
2023-04-29T05:12:38.792Z,41.52
2023-04-29T05:13:38.778Z,40.79
2023-04-29T05:14:38.774Z,40.52
2023-04-29T05:15:38.769Z,41.15
2023-04-29T05:16:38.807Z,39.18
2023-04-29T05:17:38.818Z,39.56
2023-04-29T05:18:38.744Z,40.36
2023-04-29T05:19:38.736Z,37.22
2023-04-29T05:20:38.727Z,39.50
2023-04-29T05:21:38.720Z,39.87
2023-04-29T05:22:38.749Z,37.62
2023-04-29T05:23:38.707Z,37.73
2023-04-29T05:24:38.711Z,36.36
2023-04-29T05:25:38.700Z,36.73
2023-04-29T05:26:38.682Z,36.05
2023-04-29T05:27:38.679Z,34.57
2023-04-29T05:28:38.681Z,35.05
2023-04-29T05:29:38.676Z,38.64
2023-04-29T05:30:38.777Z,39.36
2023-04-29T05:31:38.657Z,39.37
2023-04-29T05:32:38.692Z,37.43
2023-04-29T05:33:38.646Z,38.52
2023-04-29T05:34:38.641Z,38.27
2023-04-29T05:35:38.642Z,38.02
2023-04-29T05:36:38.678Z,38.75
2023-04-29T05:37:38.617Z,36.37
2023-04-29T05:38:38.659Z,39.81
2023-04-29T05:39:38.642Z,37.81
2023-04-29T05:40:38.622Z,36.57
2023-04-29T05:41:38.581Z,38.36
2023-04-29T05:42:38.576Z,40.96
2023-04-29T05:43:38.576Z,42.03
2023-04-29T05:44:38.566Z,41.89
2023-04-29T05:45:38.559Z,42.89
2023-04-29T05:46:38.702Z,42.10
2023-04-29T05:47:38.644Z,40.75
2023-04-29T05:48:38.576Z,42.51
2023-04-29T05:49:38.532Z,41.15
2023-04-29T05:50:38.544Z,25.68
2023-04-29T05:51:38.541Z,30.89
2023-04-29T05:52:38.541Z,42.45
2023-04-29T05:53:38.598Z,53.08
2023-04-29T05:54:38.529Z,53.54
2023-04-29T05:55:38.523Z,68.75
2023-04-29T05:56:38.486Z,78.04
2023-04-29T05:57:38.480Z,92.44
2023-04-29T05:58:38.476Z,104.04
2023-04-29T05:59:38.461Z,120.61
2023-04-29T06:00:38.467Z,137.00
2023-04-29T06:01:38.535Z,143.55
2023-04-29T06:02:47.232Z,143.07
2023-04-29T06:03:38.779Z,143.28
2023-04-29T06:04:38.853Z,143.24
2023-04-29T06:05:39.069Z,144.39
2023-04-29T06:06:38.566Z,147.56
2023-04-29T06:07:38.534Z,150.66
2023-04-29T06:08:38.523Z,152.89
2023-04-29T06:09:38.504Z,149.60
2023-04-29T06:10:38.543Z,152.74
2023-04-29T06:11:38.481Z,150.85
2023-04-29T06:12:38.473Z,148.40
2023-04-29T06:13:38.494Z,144.95
2023-04-29T06:14:38.530Z,145.85
2023-04-29T06:15:38.484Z,143.31
2023-04-29T06:16:38.609Z,140.96
2023-04-29T06:17:38.489Z,131.51
2023-04-29T06:18:38.431Z,123.63
2023-04-29T06:19:38.437Z,125.21
2023-04-29T06:20:38.423Z,126.09
2023-04-29T06:21:38.418Z,119.20
2023-04-29T06:22:38.414Z,111.88
2023-04-29T06:23:38.418Z,113.06
2023-04-29T06:24:38.404Z,109.46
2023-04-29T06:25:38.397Z,107.47
2023-04-29T06:26:38.409Z,111.46
2023-04-29T06:27:38.376Z,106.13
2023-04-29T06:28:38.428Z,106.35
2023-04-29T06:29:38.532Z,110.41
2023-04-29T06:30:38.553Z,108.19
2023-04-29T06:31:38.715Z,111.43
2023-04-29T06:32:38.741Z,116.11
2023-04-29T06:33:38.731Z,114.37
2023-04-29T06:34:38.796Z,118.51
2023-04-29T06:35:38.880Z,120.49
2023-04-29T06:36:38.927Z,121.14
2023-04-29T06:37:38.988Z,124.95
2023-04-29T06:38:39.053Z,126.44
2023-04-29T06:39:39.107Z,123.78
2023-04-29T06:40:39.173Z,124.37
2023-04-29T06:41:39.222Z,122.02
2023-04-29T06:42:39.311Z,126.37
2023-04-29T06:43:39.340Z,125.92
2023-04-29T06:44:39.401Z,124.63
2023-04-29T06:45:39.466Z,130.39
2023-04-29T06:46:39.624Z,131.65
2023-04-29T06:47:39.660Z,135.93
2023-04-29T06:48:39.635Z,134.18
2023-04-29T06:49:39.711Z,140.50
2023-04-29T06:50:39.782Z,134.68
2023-04-29T06:51:39.819Z,139.57
2023-04-29T06:52:39.895Z,139.01
2023-04-29T06:53:39.935Z,140.78
2023-04-29T06:54:39.998Z,138.54
2023-04-29T06:55:40.076Z,144.03
2023-04-29T06:56:40.122Z,145.55
2023-04-29T06:57:40.170Z,145.67
2023-04-29T06:58:40.247Z,145.89
2023-04-29T06:59:40.284Z,148.78
2023-04-29T07:00:40.352Z,147.04
2023-04-29T07:01:43.458Z,147.82
2023-04-29T07:02:40.502Z,148.10
2023-04-29T07:03:40.517Z,148.04
2023-04-29T07:04:40.454Z,149.49
2023-04-29T07:05:40.370Z,147.54
2023-04-29T07:06:40.374Z,144.39
2023-04-29T07:07:40.344Z,141.53
2023-04-29T07:08:40.341Z,138.63
2023-04-29T07:09:40.371Z,134.78
2023-04-29T07:10:40.339Z,131.41
2023-04-29T07:11:40.423Z,128.10
2023-04-29T07:12:40.402Z,127.90
2023-04-29T07:13:40.436Z,122.80
2023-04-29T07:14:40.525Z,119.90
2023-04-29T07:15:40.549Z,118.24
2023-04-29T07:16:40.738Z,121.60
2023-04-29T07:17:40.663Z,129.04
2023-04-29T07:18:40.653Z,128.23
2023-04-29T07:19:40.694Z,125.81
2023-04-29T07:20:40.747Z,117.56
2023-04-29T07:21:40.786Z,114.82
2023-04-29T07:22:40.825Z,113.05
2023-04-29T07:23:40.866Z,114.13
2023-04-29T07:24:40.902Z,116.00
2023-04-29T07:25:40.969Z,112.58
2023-04-29T07:26:40.995Z,115.06
2023-04-29T07:27:41.024Z,106.48
2023-04-29T07:28:41.056Z,114.35
2023-04-29T07:29:41.098Z,116.30
2023-04-29T07:30:41.183Z,108.98
2023-04-29T07:31:41.158Z,108.06
2023-04-29T07:32:41.232Z,106.16
2023-04-29T07:33:41.218Z,104.75
2023-04-29T07:34:41.247Z,101.60
2023-04-29T07:35:41.270Z,99.10
2023-04-29T07:36:41.303Z,96.19
2023-04-29T07:37:43.836Z,96.53
2023-04-29T07:38:41.340Z,102.54
2023-04-29T07:39:41.301Z,100.38
2023-04-29T07:40:41.296Z,95.73
2023-04-29T07:41:41.292Z,90.62
2023-04-29T07:42:41.286Z,86.24
2023-04-29T07:43:42.485Z,78.43
2023-04-29T07:44:41.263Z,86.70
2023-04-29T07:45:41.250Z,92.35
2023-04-29T07:46:41.310Z,94.65
2023-04-29T07:47:41.344Z,87.69
2023-04-29T07:48:41.348Z,75.45
2023-04-29T07:49:41.385Z,64.70
2023-04-29T07:50:41.441Z,59.67
2023-04-29T07:51:41.511Z,54.10
2023-04-29T07:52:41.491Z,50.90
2023-04-29T07:53:41.496Z,45.45
2023-04-29T07:54:41.490Z,47.09
2023-04-29T07:55:41.507Z,40.33
2023-04-29T07:56:41.509Z,25.00
2023-04-29T07:57:41.534Z,30.00
2023-04-29T07:58:41.532Z,41.79
2023-04-29T07:59:41.542Z,51.74
2023-04-29T08:00:41.551Z,59.23
2023-04-29T08:01:41.561Z,61.41
2023-04-29T08:02:41.760Z,62.67
2023-04-29T08:03:42.272Z,63.16
2023-04-29T08:04:41.888Z,67.96
2023-04-29T08:05:41.752Z,72.26
2023-04-29T08:06:41.806Z,73.32
2023-04-29T08:07:41.832Z,70.22
2023-04-29T08:08:42.478Z,68.59
2023-04-29T08:09:41.894Z,69.72
2023-04-29T08:10:41.932Z,71.20
2023-04-29T08:11:41.948Z,69.77
2023-04-29T08:12:41.973Z,70.01
2023-04-29T08:13:41.970Z,66.81
2023-04-29T08:14:41.981Z,70.76
2023-04-29T08:15:41.993Z,79.94
2023-04-29T08:16:42.042Z,81.97
2023-04-29T08:17:42.044Z,84.16
2023-04-29T08:18:42.023Z,90.69
2023-04-29T08:19:42.001Z,83.25
2023-04-29T08:20:41.993Z,81.39
2023-04-29T08:21:41.987Z,80.83
2023-04-29T08:22:41.984Z,72.17
2023-04-29T08:23:41.984Z,71.24
2023-04-29T08:24:41.975Z,66.93
2023-04-29T08:25:41.978Z,68.61
2023-04-29T08:26:41.970Z,68.51
2023-04-29T08:27:41.978Z,71.39
2023-04-29T08:28:41.972Z,79.46
2023-04-29T08:29:41.961Z,88.87
2023-04-29T08:30:41.969Z,64.55
2023-04-29T08:31:42.160Z,45.91
2023-04-29T08:32:42.021Z,33.26
2023-04-29T08:33:41.966Z,38.53
2023-04-29T08:34:42.000Z,30.68
2023-04-29T08:35:41.938Z,46.96
2023-04-29T08:36:41.942Z,53.60
2023-04-29T08:37:41.945Z,61.99
2023-04-29T08:38:41.966Z,73.18
2023-04-29T08:39:41.982Z,75.81
2023-04-29T08:40:42.015Z,74.92
2023-04-29T08:41:42.061Z,85.80
2023-04-29T08:42:42.120Z,85.22
2023-04-29T08:43:42.173Z,79.85
2023-04-29T08:44:42.255Z,87.47
2023-04-29T08:45:42.346Z,93.09
2023-04-29T08:46:42.364Z,102.50
2023-04-29T08:47:42.479Z,107.85
2023-04-29T08:48:44.870Z,103.79
2023-04-29T08:49:42.476Z,116.79
2023-04-29T08:50:42.480Z,121.64
2023-04-29T08:51:42.462Z,124.74
2023-04-29T08:52:42.440Z,130.16
2023-04-29T08:53:42.449Z,128.21
2023-04-29T08:54:42.427Z,130.93
2023-04-29T08:55:42.428Z,133.29
2023-04-29T08:56:42.415Z,136.87
2023-04-29T08:57:42.409Z,138.22
2023-04-29T08:58:42.407Z,142.23
2023-04-29T08:59:42.400Z,139.47
2023-04-29T09:00:42.388Z,143.35
2023-04-29T09:01:42.385Z,146.27
2023-04-29T09:02:42.430Z,151.92
2023-04-29T09:03:42.669Z,151.93
2023-04-29T09:04:42.441Z,156.12
2023-04-29T09:05:42.363Z,161.25
2023-04-29T09:06:42.377Z,163.57
2023-04-29T09:07:42.366Z,166.09
2023-04-29T09:08:42.357Z,167.93
2023-04-29T09:09:42.350Z,172.72
2023-04-29T09:10:42.314Z,174.53
2023-04-29T09:11:42.311Z,181.73
2023-04-29T09:12:42.305Z,185.58
2023-04-29T09:13:42.308Z,182.62
2023-04-29T09:14:42.310Z,191.50
2023-04-29T09:15:42.293Z,194.09
2023-04-29T09:16:42.320Z,196.15
2023-04-29T09:17:42.379Z,194.57
2023-04-29T09:18:42.272Z,195.94
2023-04-29T09:19:42.260Z,194.94
2023-04-29T09:20:42.252Z,197.32
2023-04-29T09:21:42.252Z,198.77
2023-04-29T09:22:42.261Z,200.51
2023-04-29T09:23:42.233Z,204.62
2023-04-29T09:24:42.225Z,204.93
2023-04-29T09:25:42.224Z,205.43
2023-04-29T09:26:42.210Z,206.75
2023-04-29T09:27:42.200Z,207.68
2023-04-29T09:28:42.264Z,209.45
2023-04-29T09:29:42.204Z,210.52
2023-04-29T09:30:42.181Z,214.47
2023-04-29T09:31:42.412Z,211.53
2023-04-29T09:32:42.308Z,207.61
2023-04-29T09:33:42.211Z,210.25
2023-04-29T09:34:42.214Z,218.27
2023-04-29T09:35:42.252Z,224.82
2023-04-29T09:36:42.225Z,227.86
2023-04-29T09:37:42.231Z,226.15
2023-04-29T09:38:44.603Z,228.29
2023-04-29T09:39:42.304Z,233.62
2023-04-29T09:40:57.421Z,231.96
2023-04-29T09:41:42.221Z,232.56
2023-04-29T09:42:42.209Z,233.31
2023-04-29T09:43:42.197Z,234.70
2023-04-29T09:44:42.196Z,237.79
2023-04-29T09:45:42.245Z,240.03
2023-04-29T09:46:42.181Z,241.23
2023-04-29T09:47:42.187Z,240.82
2023-04-29T09:48:42.167Z,236.98
2023-04-29T09:49:42.158Z,239.28
2023-04-29T09:50:42.156Z,238.10
2023-04-29T09:51:42.146Z,236.51
2023-04-29T09:52:42.168Z,240.27
2023-04-29T09:53:42.144Z,239.62
2023-04-29T09:54:42.260Z,236.53
2023-04-29T09:55:42.126Z,248.35
2023-04-29T09:56:42.114Z,249.16
2023-04-29T09:57:44.234Z,244.86
2023-04-29T09:58:42.099Z,245.36
2023-04-29T09:59:42.090Z,246.13
2023-04-29T10:00:42.085Z,248.24
2023-04-29T10:01:42.174Z,252.23
2023-04-29T10:02:42.176Z,261.77
2023-04-29T10:03:42.282Z,248.95
2023-04-29T10:04:42.087Z,248.74
2023-04-29T10:05:42.056Z,248.38
2023-04-29T10:06:42.051Z,249.54
2023-04-29T10:07:42.037Z,250.00
2023-04-29T10:08:42.030Z,245.25
2023-04-29T10:09:42.026Z,245.75
2023-04-29T10:10:42.060Z,250.50
2023-04-29T10:11:42.004Z,243.92
2023-04-29T10:12:41.996Z,240.81
2023-04-29T10:13:42.000Z,241.42
2023-04-29T10:14:42.003Z,241.52
2023-04-29T10:15:41.994Z,245.15
2023-04-29T10:16:41.988Z,245.35
2023-04-29T10:17:41.958Z,246.49
2023-04-29T10:18:42.001Z,246.23
2023-04-29T10:19:41.953Z,250.00
2023-04-29T10:20:41.954Z,246.37
2023-04-29T10:21:41.937Z,248.66
2023-04-29T10:22:41.929Z,249.88
2023-04-29T10:23:41.924Z,248.13
2023-04-29T10:24:41.917Z,249.47
2023-04-29T10:25:41.908Z,249.37
2023-04-29T10:26:41.973Z,250.09
2023-04-29T10:27:41.896Z,248.68
2023-04-29T10:28:41.885Z,249.88
2023-04-29T10:29:41.888Z,246.78
2023-04-29T10:30:41.867Z,246.02
2023-04-29T10:31:41.912Z,248.27
2023-04-29T10:32:50.576Z,248.43
2023-04-29T10:33:41.878Z,248.82
2023-04-29T10:34:41.842Z,249.67
2023-04-29T10:35:41.842Z,250.52
2023-04-29T10:36:41.829Z,254.55
2023-04-29T10:37:41.822Z,259.19
2023-04-29T10:38:41.878Z,249.82
2023-04-29T10:39:41.799Z,247.03
2023-04-29T10:40:41.794Z,245.12
2023-04-29T10:41:41.788Z,240.71
2023-04-29T10:42:41.805Z,242.78
2023-04-29T10:43:41.773Z,240.95
2023-04-29T10:44:41.777Z,241.97
2023-04-29T10:45:41.773Z,240.00
2023-04-29T10:46:41.770Z,240.61
2023-04-29T10:47:41.770Z,234.75
2023-04-29T10:48:41.749Z,241.60
2023-04-29T10:49:41.746Z,240.85
2023-04-29T10:50:41.737Z,234.63
2023-04-29T10:51:41.730Z,238.43
2023-04-29T10:52:41.727Z,237.11
2023-04-29T10:53:41.707Z,239.77
2023-04-29T10:54:41.757Z,238.57
2023-04-29T10:55:41.724Z,237.86
2023-04-29T10:56:41.783Z,237.95
2023-04-29T10:57:41.681Z,235.36
2023-04-29T10:58:41.701Z,238.69
2023-04-29T10:59:41.681Z,238.65
2023-04-29T11:00:41.752Z,238.56
2023-04-29T11:01:41.683Z,239.71
2023-04-29T11:02:41.743Z,239.28
2023-04-29T11:03:41.809Z,237.26
2023-04-29T11:04:41.706Z,239.30
2023-04-29T11:05:41.629Z,238.18
2023-04-29T11:06:41.746Z,236.76
2023-04-29T11:07:41.615Z,239.72
2023-04-29T11:08:41.613Z,238.14
2023-04-29T11:09:41.606Z,237.69
2023-04-29T11:10:41.689Z,238.59
2023-04-29T11:11:41.600Z,238.47
2023-04-29T11:12:41.597Z,236.98
2023-04-29T11:13:41.602Z,238.02
2023-04-29T11:14:41.605Z,238.56
2023-04-29T11:15:41.566Z,237.62
2023-04-29T11:16:41.603Z,236.89
2023-04-29T11:17:41.649Z,234.86
2023-04-29T11:18:41.549Z,236.42
2023-04-29T11:19:41.548Z,237.65
2023-04-29T11:20:41.555Z,235.67
2023-04-29T11:21:41.557Z,237.50
2023-04-29T11:22:41.532Z,237.05
2023-04-29T11:23:41.578Z,238.42
2023-04-29T11:24:41.600Z,236.59
2023-04-29T11:25:41.654Z,237.66
2023-04-29T11:26:41.680Z,238.35
2023-04-29T11:27:41.701Z,237.91
2023-04-29T11:28:41.733Z,237.88
2023-04-29T11:29:41.764Z,237.05
2023-04-29T11:30:41.821Z,236.89
2023-04-29T11:31:41.940Z,237.55
2023-04-29T11:32:41.965Z,237.45
2023-04-29T11:33:41.893Z,239.01
2023-04-29T11:34:41.933Z,235.85
2023-04-29T11:35:41.970Z,235.16
2023-04-29T11:36:42.016Z,235.26
2023-04-29T11:37:42.021Z,236.03
2023-04-29T11:38:42.052Z,235.36
2023-04-29T11:39:42.100Z,236.52
2023-04-29T11:40:42.113Z,236.26
2023-04-29T11:41:42.148Z,234.55
2023-04-29T11:42:42.169Z,237.10
2023-04-29T11:43:42.224Z,236.68
2023-04-29T11:44:42.232Z,235.01
2023-04-29T11:45:42.302Z,236.95
2023-04-29T11:46:42.326Z,233.73
2023-04-29T11:47:42.369Z,234.23
2023-04-29T11:48:42.370Z,234.74
2023-04-29T11:49:42.412Z,234.76
2023-04-29T11:50:42.453Z,233.19
2023-04-29T11:51:42.482Z,234.69
2023-04-29T11:52:42.524Z,232.57
2023-04-29T11:53:42.554Z,232.87
2023-04-29T11:54:43.308Z,233.46
2023-04-29T11:55:42.629Z,232.40
2023-04-29T11:56:42.664Z,230.18
2023-04-29T11:57:42.700Z,230.60
2023-04-29T11:58:42.751Z,228.36
2023-04-29T11:59:42.774Z,229.39
2023-04-29T12:00:42.797Z,228.20
2023-04-29T12:01:42.835Z,229.68
2023-04-29T12:02:42.973Z,229.67
2023-04-29T12:03:43.088Z,229.99
2023-04-29T12:04:43.237Z,225.84
2023-04-29T12:05:43.049Z,224.91
2023-04-29T12:06:43.004Z,229.24
2023-04-29T12:07:43.042Z,226.48
2023-04-29T12:08:43.081Z,226.06
2023-04-29T12:09:43.124Z,228.77
2023-04-29T12:10:43.145Z,227.82
2023-04-29T12:11:43.188Z,226.17
2023-04-29T12:12:43.219Z,225.31
2023-04-29T12:13:43.259Z,225.62
2023-04-29T12:14:43.301Z,223.75
2023-04-29T12:15:43.350Z,224.54
2023-04-29T12:16:43.377Z,225.12
2023-04-29T12:17:43.489Z,227.42
2023-04-29T12:18:43.509Z,224.89
2023-04-29T12:19:43.507Z,223.13
2023-04-29T12:20:43.536Z,223.61
2023-04-29T12:21:43.570Z,222.25
2023-04-29T12:22:43.626Z,218.26
2023-04-29T12:23:43.660Z,223.98
2023-04-29T12:24:43.692Z,220.93
2023-04-29T12:25:43.737Z,218.82
2023-04-29T12:26:43.771Z,219.93
2023-04-29T12:27:43.802Z,220.41
2023-04-29T12:28:43.831Z,219.31
2023-04-29T12:29:43.881Z,221.00
2023-04-29T12:30:43.909Z,219.85
2023-04-29T12:31:43.959Z,219.64
2023-04-29T12:32:44.010Z,219.34
2023-04-29T12:33:44.012Z,219.05
2023-04-29T12:34:44.077Z,218.74
2023-04-29T12:35:44.089Z,216.77
2023-04-29T12:36:44.132Z,219.72
2023-04-29T12:37:44.166Z,217.46
2023-04-29T12:38:44.195Z,218.25
2023-04-29T12:39:44.242Z,216.10
2023-04-29T12:40:44.282Z,215.90
2023-04-29T12:41:44.371Z,214.19
2023-04-29T12:42:44.355Z,215.76
2023-04-29T12:43:44.381Z,214.26
2023-04-29T12:44:44.479Z,215.51